Main page
METAR-TAF:

METAR-TAF

Airports :

Cairo International Airport

Cairo, Egypt

latitude: 30-08N, longitude: 031-24E, elevation: 64 m

Current weather observation

The report was made 24 minutes ago, at 22:00 UTC
Wind 8 kt from the Northwest
Temperature 26°C
Humidity 70%
Pressure 1010 hPa
Visibility 10 km or more
no clouds below 1500 m and no cumulonimbus

METAR: HECA 182200Z 32008KT CAVOK 26/20 Q1010 NOSIG

Time: 00:24 (22:24 UTC)

Forecast

The report was made 5 hours and 24 minutes ago, at 17:00 UTC
Forecast valid from 18 at 18 UTC to 19 at 24 UTC
Wind 12 kt from the Northwest
Visibility 10 km or more
Scattered clouds at a height of 2500 ft
Temporary
from 19 at 00 UTC to 19 at 08 UTC
Wind 3 kt from variable directions
Visibility: 4000 m
haze
Probability 40% :
Temporary
from 19 at 02 UTC to 19 at 06 UTC
Visibility: 2000 m

TAF: HECA 181700Z 1818/1924 32012KT 9999 SCT025 TEMPO 1900/1908 VRB03KT 4000 HZ PROB40 TEMPO 1902/1906 2000

Weather observations and forecasts of more than 4000 airports (METAR and TAF reports).

The available stations are represented by yellow and red dots on the map.

Hover mouse over dot to see the name of the station.

Then click to see weather observations and forecasts.

To change the map : click on the green buttons with a black cross to zoom in, on the green button with a dash to zoom out, or on the green arrows for adjacent maps.


METAR-TAF: